METAR Data
IDs: Format: Raw Decoded Include TAF

Data at: 2014 UTC 17 Nov 2019

KOZS 171955Z AUTO 23007KT 10SM SCT060 BKN075 OVC100 08/01 A2993 RMK AO2
KOZS 171935Z AUTO 23005KT 10SM OVC060 07/02 A2993 RMK AO2
KOZS 171915Z AUTO 24005KT 10SM -RA OVC060 07/01 A2994 RMK AO2
KOZS 171855Z AUTO 24005KT 10SM RA OVC060 07/01 A2995 RMK AO2
KOZS 171835Z AUTO 24006KT 10SM OVC060 07/01 A2995 RMK AO2
KOZS 171815Z AUTO 24007KT 10SM -RA OVC060 08/00 A2996 RMK AO2
KOZS 171755Z AUTO 25005KT 10SM OVC070 09/00 A2997 RMK AO2
KOZS 171735Z AUTO 25008G16KT 10SM OVC090 09/M01 A2999 RMK AO2
KOZS 171715Z AUTO 23009KT 10SM OVC090 09/M01 A2999 RMK AO2
KOZS 171655Z AUTO 22006KT 10SM SCT070 OVC100 09/M01 A2999 RMK AO2
KOZS 171635Z AUTO 21007KT 10SM BKN100 08/M02 A3000 RMK AO2
KOZS 171615Z AUTO 22008KT 10SM SCT120 08/M02 A3001 RMK AO2
KOZS 171555Z AUTO 22009KT 10SM CLR 08/M02 A3001 RMK AO2
KOZS 171535Z AUTO 21007KT 10SM CLR 08/M02 A3001 RMK AO2
KOZS 171515Z AUTO 21008KT 10SM CLR 08/M02 A3002 RMK AO2
KOZS 171455Z AUTO 19006KT 10SM CLR 07/M01 A3002 RMK AO2
KOZS 171435Z AUTO 18006KT 10SM CLR 07/M01 A3002 RMK AO2
KOZS 171415Z AUTO 17005KT 10SM CLR 06/M01 A3002 RMK AO2
KOZS 171355Z AUTO 15004KT 10SM CLR 06/M01 A3002 RMK AO2
KOZS 171335Z AUTO 17004KT 10SM CLR 06/00 A3003 RMK AO2
KOZS 171315Z AUTO 16004KT 10SM CLR 05/M01 A3003 RMK AO2
KOZS 171255Z AUTO 16003KT 10SM CLR 05/00 A3003 RMK AO2
KOZS 171235Z AUTO 00000KT 10SM CLR 05/00 A3003 RMK AO2
KOZS 171215Z AUTO 15003KT 10SM CLR 05/00 A3003 RMK AO2
KOZS 171155Z AUTO 15003KT 10SM CLR 05/M01 A3004 RMK AO2
KOZS 171135Z AUTO 17003KT 10SM CLR 06/M01 A3004 RMK AO2
KOZS 171115Z AUTO 15005KT 10SM CLR 06/M01 A3003 RMK AO2
KOZS 171055Z AUTO 16008KT 10SM CLR 06/M01 A3004 RMK AO2
KOZS 171035Z AUTO 17007KT 10SM CLR 06/M01 A3005 RMK AO2
KOZS 171015Z AUTO 14008KT 10SM CLR 06/M01 A3005 RMK AO2
KOZS 170955Z AUTO 16006KT 10SM CLR 06/M01 A3006 RMK AO2
KOZS 170935Z AUTO 15008KT 10SM CLR 06/M01 A3007 RMK AO2
KOZS 170915Z AUTO 15007KT 10SM CLR 05/M01 A3007 RMK AO2
KOZS 170855Z AUTO 14005KT 10SM CLR 05/M01 A3007 RMK AO2
KOZS 170835Z AUTO 13006KT 10SM CLR 05/M01 A3007 RMK AO2
KOZS 170815Z AUTO 17004KT 10SM CLR 06/M01 A3009 RMK AO2
KOZS 170755Z AUTO 15003KT 10SM CLR 06/M01 A3009 RMK AO2
KOZS 170735Z AUTO 19003KT 10SM CLR 06/M01 A3010 RMK AO2
KOZS 170715Z AUTO 13004KT 10SM CLR 06/M01 A3009 RMK AO2
KOZS 170655Z AUTO 15005KT 10SM CLR 07/M01 A3009 RMK AO2
KOZS 170635Z AUTO 17004KT 10SM CLR 06/M01 A3010 RMK AO2
KOZS 170615Z AUTO 13005KT 10SM CLR 06/M01 A3009 RMK AO2
KOZS 170555Z AUTO 14006KT 10SM CLR 06/M01 A3010 RMK AO2
KOZS 170535Z AUTO 14005KT 10SM CLR 05/M02 A3010 RMK AO2
KOZS 170515Z AUTO 12004KT 10SM CLR 05/M02 A3010 RMK AO2
KOZS 170455Z AUTO 14004KT 10SM CLR 05/M02 A3010 RMK AO2
KOZS 170435Z AUTO 12005KT 10SM CLR 06/M02 A3010 RMK AO2
KOZS 170415Z AUTO 13004KT 10SM CLR 06/M02 A3011 RMK AO2
KOZS 170355Z AUTO 15005KT 10SM CLR 06/M02 A3011 RMK AO2
KOZS 170335Z AUTO 14006KT 10SM CLR 06/M02 A3010 RMK AO2
KOZS 170315Z AUTO 14006KT 10SM CLR 05/M02 A3010 RMK AO2
KOZS 170255Z AUTO 13006KT 10SM CLR 05/M03 A3010 RMK AO2
KOZS 170235Z AUTO 13004KT 10SM CLR 05/M03 A3010 RMK AO2
KOZS 170215Z AUTO 14004KT 10SM CLR 06/M03 A3011 RMK AO2
KOZS 170155Z AUTO 15005KT 10SM CLR 07/M03 A3011 RMK AO2
KOZS 170135Z AUTO 15006KT 10SM CLR 07/M03 A3011 RMK AO2
KOZS 170115Z AUTO 13005KT 10SM CLR 06/M05 A3011 RMK AO2
KOZS 170055Z AUTO 12004KT 10SM CLR 07/M04 A3011 RMK AO2
KOZS 170035Z AUTO 12004KT 10SM CLR 07/M04 A3012 RMK AO2
KOZS 170015Z AUTO 13004KT 10SM CLR 08/M05 A3012 RMK AO2
KOZS 162355Z AUTO 12003KT 10SM CLR 08/M05 A3012 RMK AO2
KOZS 162335Z AUTO 13004KT 10SM CLR 10/M05 A3012 RMK AO2
KOZS 162315Z AUTO 12003KT 10SM CLR 09/M05 A3012 RMK AO2
KOZS 162255Z AUTO 00000KT 10SM CLR 10/M05 A3012 RMK AO2
KOZS 162235Z AUTO 13004KT 10SM CLR 11/M05 A3012 RMK AO2
KOZS 162215Z AUTO 13005KT 10SM CLR 11/M05 A3012 RMK AO2
KOZS 162155Z AUTO 14006KT 10SM CLR 12/M05 A3013 RMK AO2
KOZS 162135Z AUTO 12007KT 10SM CLR 13/M05 A3013 RMK AO2
KOZS 162115Z AUTO 11007KT 10SM CLR 13/M05 A3015 RMK AO2
KOZS 162055Z AUTO 12006KT 10SM CLR 14/M05 A3015 RMK AO2
KOZS 162035Z AUTO 11004KT 10SM CLR 13/M05 A3015 RMK AO2
KOZS 162015Z AUTO 15007KT 10SM CLR 13/M05 A3016 RMK AO2